createdAt,value
2022-09-09T00:01:39.960Z,99709.34
2022-09-09T00:06:47.662Z,99701.75
2022-09-09T00:11:54.996Z,99700.88
2022-09-09T00:17:05.010Z,99704.28
2022-09-09T00:22:17.788Z,99697.19
2022-09-09T00:27:24.618Z,99694.47
2022-09-09T00:32:32.310Z,99712.41
2022-09-09T00:37:36.399Z,99703.25
2022-09-09T00:42:43.918Z,99701.91
2022-09-09T00:47:51.779Z,99705.78
2022-09-09T00:53:07.361Z,99701.56
2022-09-09T00:58:11.089Z,99699.19
2022-09-09T01:03:25.016Z,99697.69
2022-09-09T01:08:50.047Z,99686.53
2022-09-09T01:13:59.971Z,99692.44
2022-09-09T01:19:10.795Z,99686.16
2022-09-09T01:24:24.173Z,99695.16
2022-09-09T01:29:40.307Z,99702.63
2022-09-09T01:34:43.909Z,99694.81
2022-09-09T01:39:47.085Z,99696.34
2022-09-09T01:44:55.272Z,99686.66
2022-09-09T01:49:58.348Z,99688.06
2022-09-09T01:55:04.025Z,99699.91
2022-09-09T02:00:17.140Z,99702.56
2022-09-09T02:05:30.653Z,99689.72
2022-09-09T02:10:42.342Z,99700.06
2022-09-09T02:16:01.730Z,99694.66
2022-09-09T02:21:05.377Z,99693.00
2022-09-09T02:26:09.870Z,99696.19
2022-09-09T02:31:16.127Z,99702.44
2022-09-09T02:36:20.966Z,99698.56
2022-09-09T02:41:28.959Z,99705.63
2022-09-09T02:46:46.683Z,99716.97
2022-09-09T02:51:57.024Z,99705.97
2022-09-09T02:57:06.625Z,99715.44
2022-09-09T03:02:15.435Z,99711.03
2022-09-09T03:07:21.976Z,99714.06
2022-09-09T03:12:27.061Z,99720.00
2022-09-09T03:17:31.338Z,99727.44
2022-09-09T03:22:35.193Z,99725.25
2022-09-09T03:27:38.180Z,99716.28
2022-09-09T03:32:47.122Z,99723.56
2022-09-09T03:37:51.906Z,99716.78
2022-09-09T03:42:55.474Z,99711.38
2022-09-09T03:47:59.717Z,99706.81
2022-09-09T03:53:02.545Z,99710.03
2022-09-09T03:58:05.469Z,99707.47
2022-09-09T04:03:13.273Z,99709.19
2022-09-09T04:08:16.142Z,99708.69
2022-09-09T04:13:20.696Z,99701.75
2022-09-09T04:18:26.924Z,99700.53
2022-09-09T04:23:30.820Z,99708.84
2022-09-09T04:28:37.281Z,99721.38
2022-09-09T04:33:44.728Z,99725.59
2022-09-09T04:38:48.385Z,99716.97
2022-09-09T04:43:51.516Z,99728.63
2022-09-09T04:48:55.772Z,99738.28
2022-09-09T04:54:03.367Z,99739.72
2022-09-09T04:59:07.440Z,99728.84
2022-09-09T05:04:20.577Z,99734.47
2022-09-09T05:09:23.854Z,99739.88
2022-09-09T05:14:28.185Z,99741.75
2022-09-09T05:19:32.760Z,99743.16
2022-09-09T05:24:35.689Z,99745.69
2022-09-09T05:29:39.974Z,99732.34
2022-09-09T05:34:46.252Z,99736.75
2022-09-09T05:39:49.192Z,99736.91
2022-09-09T05:44:55.440Z,99743.81
2022-09-09T05:49:59.859Z,99742.47
2022-09-09T05:55:04.888Z,99741.47
2022-09-09T06:00:09.258Z,99739.13
2022-09-09T06:05:18.019Z,99740.63
2022-09-09T06:10:22.478Z,99746.19
2022-09-09T06:15:25.664Z,99744.09
2022-09-09T06:20:31.577Z,99743.41
2022-09-09T06:25:35.397Z,99739.28
2022-09-09T06:30:39.443Z,99733.47
2022-09-09T06:35:44.342Z,99736.63
2022-09-09T06:40:53.902Z,99738.06
2022-09-09T06:45:58.325Z,99732.00
2022-09-09T06:51:08.531Z,99739.94
2022-09-09T06:56:24.254Z,99743.31
2022-09-09T07:01:31.471Z,99744.44
2022-09-09T07:06:41.293Z,99763.91
2022-09-09T07:11:49.499Z,99770.16
2022-09-09T07:16:57.522Z,99766.28
2022-09-09T07:22:04.622Z,99762.28
2022-09-09T07:27:08.066Z,99767.63
2022-09-09T07:32:12.501Z,99779.00
2022-09-09T07:37:18.039Z,99776.19
2022-09-09T07:42:22.002Z,99769.72
2022-09-09T07:47:26.023Z,99765.63
2022-09-09T07:52:30.374Z,99762.34
2022-09-09T07:57:37.189Z,99754.44
2022-09-09T08:02:41.082Z,99763.16
2022-09-09T08:07:47.109Z,99764.66
2022-09-09T08:13:07.764Z,99751.28
2022-09-09T08:18:13.616Z,99751.25
2022-09-09T08:23:17.876Z,99758.03
2022-09-09T08:28:22.009Z,99757.59
2022-09-09T08:33:26.060Z,99760.28
2022-09-09T08:38:30.601Z,99768.69
2022-09-09T08:43:35.498Z,99773.72
2022-09-09T08:48:54.190Z,99782.72
2022-09-09T08:54:01.846Z,99769.50
2022-09-09T08:59:06.221Z,99778.75
2022-09-09T09:04:40.300Z,99779.22
2022-09-09T09:09:59.695Z,99777.38
2022-09-09T09:15:03.528Z,99783.72
2022-09-09T09:20:13.841Z,99777.09
2022-09-09T09:25:21.393Z,99777.66
2022-09-09T09:30:30.617Z,99773.84
2022-09-09T09:35:42.964Z,99789.44
2022-09-09T09:40:58.886Z,99781.28
2022-09-09T09:46:17.539Z,99781.69
2022-09-09T09:51:24.440Z,99770.16
2022-09-09T09:56:31.036Z,99780.03
2022-09-09T10:01:37.339Z,99812.78
2022-09-09T10:06:45.652Z,99782.09
2022-09-09T10:12:00.432Z,99789.97
2022-09-09T10:17:17.850Z,99787.63
2022-09-09T10:22:28.507Z,99783.19
2022-09-09T10:27:41.357Z,99755.00
2022-09-09T10:32:52.206Z,99752.88
2022-09-09T10:38:14.852Z,99763.16
2022-09-09T10:43:31.842Z,99763.56
2022-09-09T10:48:49.255Z,99754.63
2022-09-09T10:54:07.462Z,99748.91
2022-09-09T10:59:16.153Z,99744.28
2022-09-09T11:04:24.462Z,99756.09
2022-09-09T11:09:33.124Z,99748.63
2022-09-09T11:14:41.479Z,99750.84
2022-09-09T11:19:46.022Z,99758.69
2022-09-09T11:24:53.712Z,99759.88
2022-09-09T11:30:27.236Z,99751.69
2022-09-09T11:35:49.221Z,99751.06
2022-09-09T11:41:00.214Z,99758.88
2022-09-09T11:46:05.368Z,99741.34
2022-09-09T11:51:16.488Z,99740.13
2022-09-09T11:56:32.335Z,99747.91
2022-09-09T12:01:42.586Z,99738.50
2022-09-09T12:06:47.837Z,99750.59
2022-09-09T12:11:51.589Z,99745.38
2022-09-09T12:16:55.849Z,99745.50
2022-09-09T12:22:09.487Z,99751.50
2022-09-09T12:27:20.754Z,99744.31
2022-09-09T12:32:27.678Z,99732.56
2022-09-09T12:37:37.041Z,99726.00
2022-09-09T12:42:42.795Z,99727.34
2022-09-09T12:47:50.400Z,99714.69
2022-09-09T12:52:56.027Z,99730.53
2022-09-09T12:58:01.221Z,99716.19
2022-09-09T13:03:19.172Z,99721.31
2022-09-09T13:08:22.747Z,99700.88
2022-09-09T13:13:31.008Z,99690.69
2022-09-09T13:18:39.041Z,99700.97
2022-09-09T13:23:42.137Z,99683.75
2022-09-09T13:28:47.330Z,99700.25
2022-09-09T13:33:54.061Z,99711.00
2022-09-09T13:39:00.473Z,99697.72
2022-09-09T13:44:04.797Z,99689.59
2022-09-09T13:49:24.129Z,99687.81
2022-09-09T13:54:26.914Z,99694.50
2022-09-09T13:59:53.906Z,99690.81
2022-09-09T14:04:56.278Z,99674.22
2022-09-09T14:10:01.382Z,99687.66
2022-09-09T14:15:05.067Z,99687.56
2022-09-09T14:20:11.147Z,99683.38
2022-09-09T14:25:15.317Z,99684.53
2022-09-09T14:30:18.372Z,99673.41
2022-09-09T14:35:23.207Z,99667.66
2022-09-09T14:40:26.297Z,99670.88
2022-09-09T14:45:29.409Z,99671.44
2022-09-09T14:50:33.810Z,99680.00
2022-09-09T14:55:36.868Z,99671.66
2022-09-09T15:00:40.094Z,99677.94
2022-09-09T15:05:44.340Z,99676.31
2022-09-09T15:10:48.232Z,99673.88
2022-09-09T15:15:52.196Z,99691.00
2022-09-09T15:20:57.323Z,99689.50
2022-09-09T15:26:01.345Z,99700.63
2022-09-09T15:31:08.314Z,99697.06
2022-09-09T15:36:17.882Z,99691.91
2022-09-09T15:41:22.527Z,99691.56
2022-09-09T15:46:29.153Z,99682.81
2022-09-09T15:51:49.236Z,99679.59
2022-09-09T15:56:55.843Z,99675.22
2022-09-09T16:02:00.973Z,99670.41
2022-09-09T16:07:07.639Z,99664.91
2022-09-09T16:12:12.904Z,99675.81
2022-09-09T16:17:16.319Z,99673.31
2022-09-09T16:22:22.853Z,99680.44
2022-09-09T16:27:25.946Z,99684.84
2022-09-09T16:32:29.093Z,99688.72
2022-09-09T16:37:34.999Z,99692.59
2022-09-09T16:42:39.700Z,99712.16
2022-09-09T16:47:42.848Z,99734.59
2022-09-09T16:52:46.890Z,99735.88
2022-09-09T16:57:50.259Z,99740.75
2022-09-09T17:02:53.134Z,99733.81
2022-09-09T17:07:58.358Z,99741.69
2022-09-09T17:13:02.601Z,99754.44
2022-09-09T17:18:05.793Z,99766.59
2022-09-09T17:23:10.941Z,99769.63
2022-09-09T17:28:13.771Z,99791.06
2022-09-09T17:33:16.810Z,99787.91
2022-09-09T17:38:23.511Z,99773.81
2022-09-09T17:43:29.594Z,99764.91
2022-09-09T17:48:32.510Z,99777.66
2022-09-09T17:53:40.582Z,99780.81
2022-09-09T17:58:44.082Z,99789.72
2022-09-09T18:03:48.967Z,99788.47
2022-09-09T18:08:56.507Z,99792.94
2022-09-09T18:14:01.554Z,99790.22
2022-09-09T18:19:06.346Z,99805.03
2022-09-09T18:24:11.652Z,99806.16
2022-09-09T18:29:16.973Z,99809.78
2022-09-09T18:34:22.005Z,99813.84
2022-09-09T18:39:28.820Z,99820.13
2022-09-09T18:44:34.586Z,99828.78
2022-09-09T18:49:37.453Z,99824.88
2022-09-09T18:54:45.914Z,99829.72
2022-09-09T18:59:49.179Z,99820.38
2022-09-09T19:04:52.108Z,99822.91
2022-09-09T19:09:56.396Z,99824.41
2022-09-09T19:14:59.830Z,99824.09
2022-09-09T19:20:03.186Z,99822.78
2022-09-09T19:25:08.688Z,99824.97
2022-09-09T19:30:13.461Z,99833.34
2022-09-09T19:35:16.649Z,99828.91
2022-09-09T19:40:22.114Z,99823.69
2022-09-09T19:45:24.961Z,99836.41
2022-09-09T19:50:29.058Z,99838.09
2022-09-09T19:55:35.372Z,99842.88
2022-09-09T20:00:39.473Z,99830.84
2022-09-09T20:05:42.519Z,99831.41
2022-09-09T20:10:54.387Z,99829.41
2022-09-09T20:16:00.378Z,99839.56
2022-09-09T20:21:05.700Z,99840.41
2022-09-09T20:26:12.898Z,99841.44
2022-09-09T20:31:17.516Z,99845.00
2022-09-09T20:36:22.697Z,99858.03
2022-09-09T20:41:29.269Z,99853.81
2022-09-09T20:46:35.161Z,99850.91
2022-09-09T20:51:38.781Z,99852.44
2022-09-09T20:56:45.172Z,99856.53
2022-09-09T21:01:48.635Z,99843.28
2022-09-09T21:06:51.830Z,99850.56
2022-09-09T21:11:55.979Z,99854.47
2022-09-09T21:16:58.863Z,99858.88
2022-09-09T21:22:01.720Z,99863.69
2022-09-09T21:27:06.340Z,99861.69
2022-09-09T21:32:09.104Z,99858.53
2022-09-09T21:37:12.126Z,99861.19
2022-09-09T21:42:16.267Z,99873.69
2022-09-09T21:47:19.269Z,99861.84
2022-09-09T21:52:22.146Z,99870.28
2022-09-09T21:57:26.333Z,99863.19
2022-09-09T22:02:29.399Z,99868.59
2022-09-09T22:07:33.189Z,99864.91
2022-09-09T22:12:37.366Z,99868.19
2022-09-09T22:17:41.006Z,99878.41
2022-09-09T22:22:43.683Z,99878.34
2022-09-09T22:27:47.829Z,99885.78
2022-09-09T22:32:50.887Z,99894.91
2022-09-09T22:37:55.719Z,99895.78
2022-09-09T22:42:59.777Z,99895.44
2022-09-09T22:48:02.766Z,99908.75
2022-09-09T22:53:06.124Z,99902.09
2022-09-09T22:58:10.934Z,99910.50
2022-09-09T23:03:13.746Z,99911.03
2022-09-09T23:08:18.699Z,99903.59
2022-09-09T23:13:24.204Z,99899.41
2022-09-09T23:18:27.010Z,99896.34
2022-09-09T23:23:29.795Z,99907.81
2022-09-09T23:28:34.946Z,99902.09
2022-09-09T23:33:38.180Z,99895.16
2022-09-09T23:38:41.859Z,99892.13
2022-09-09T23:43:45.928Z,99890.44
2022-09-09T23:48:50.601Z,99891.28
2022-09-09T23:53:57.025Z,99883.50
2022-09-09T23:59:01.605Z,99883.75
